createdAt,value
2019-02-08T00:02:05.644Z,0.70
2019-02-08T00:04:35.976Z,0.70
2019-02-08T00:07:06.535Z,0.70
2019-02-08T00:09:37.018Z,0.70
2019-02-08T00:12:07.356Z,0.80
2019-02-08T00:14:37.847Z,0.80
2019-02-08T00:17:08.188Z,0.90
2019-02-08T00:19:38.622Z,1.10
2019-02-08T00:22:08.934Z,1.20
2019-02-08T00:24:39.340Z,1.20
2019-02-08T00:27:09.787Z,1.30
2019-02-08T00:29:40.317Z,1.30
2019-02-08T00:32:10.678Z,1.30
2019-02-08T00:34:41.049Z,1.40
2019-02-08T00:37:11.889Z,1.40
2019-02-08T00:39:42.334Z,1.40
2019-02-08T00:42:12.873Z,1.50
2019-02-08T00:44:43.532Z,1.50
2019-02-08T00:47:13.920Z,1.50
2019-02-08T00:49:44.665Z,1.50
2019-02-08T00:52:15.477Z,1.60
2019-02-08T00:54:45.916Z,1.60
2019-02-08T00:57:16.328Z,1.60
2019-02-08T00:59:46.773Z,1.60
2019-02-08T01:02:17.298Z,1.70
2019-02-08T01:04:47.723Z,1.70
2019-02-08T01:07:30.531Z,1.70
2019-02-08T01:10:00.956Z,1.70
2019-02-08T01:12:31.301Z,1.70
2019-02-08T01:15:02.667Z,1.70
2019-02-08T01:17:33.174Z,1.80
2019-02-08T01:20:03.602Z,1.70
2019-02-08T01:22:34.122Z,1.80
2019-02-08T01:25:06.023Z,1.80
2019-02-08T01:27:36.411Z,1.80
2019-02-08T01:30:09.491Z,1.80
2019-02-08T01:32:40.002Z,1.80
2019-02-08T01:35:10.671Z,1.80
2019-02-08T01:37:41.082Z,1.90
2019-02-08T01:40:15.433Z,1.90
2019-02-08T01:42:45.779Z,1.90
2019-02-08T01:45:18.582Z,1.90
2019-02-08T01:47:48.937Z,1.90
2019-02-08T01:50:24.116Z,1.90
2019-02-08T01:52:54.394Z,1.80
2019-02-08T01:55:25.833Z,1.90
2019-02-08T01:57:56.321Z,1.90
2019-02-08T02:00:35.039Z,1.90
2019-02-08T02:03:06.341Z,1.90
2019-02-08T02:05:36.773Z,1.90
2019-02-08T02:08:07.267Z,2.00
2019-02-08T02:10:39.850Z,2.00
2019-02-08T02:13:10.843Z,1.90
2019-02-08T02:15:41.174Z,2.00
2019-02-08T02:18:12.467Z,2.00
2019-02-08T02:20:43.532Z,2.00
2019-02-08T02:23:15.642Z,1.90
2019-02-08T02:25:46.036Z,1.90
2019-02-08T02:28:16.338Z,1.90
2019-02-08T02:30:46.810Z,1.90
2019-02-08T02:33:17.091Z,1.80
2019-02-08T02:35:47.502Z,1.90
2019-02-08T02:38:17.966Z,1.80
2019-02-08T02:40:48.371Z,1.80
2019-02-08T02:43:18.542Z,1.80
2019-02-08T02:45:48.865Z,1.80
2019-02-08T02:48:19.090Z,1.80
2019-02-08T02:50:49.664Z,1.80
2019-02-08T02:53:20.326Z,1.80
2019-02-08T02:55:50.735Z,1.80
2019-02-08T02:58:21.119Z,1.80
2019-02-08T03:00:52.422Z,1.80
2019-02-08T03:03:22.684Z,1.90
2019-02-08T03:05:53.040Z,1.90
2019-02-08T03:08:23.393Z,1.90
2019-02-08T03:10:53.897Z,1.90
2019-02-08T03:13:24.283Z,1.90
2019-02-08T03:15:54.863Z,1.90
2019-02-08T03:18:25.302Z,1.90
2019-02-08T03:20:55.594Z,2.00
2019-02-08T03:23:26.234Z,1.90
2019-02-08T03:25:57.991Z,1.90
2019-02-08T03:28:28.327Z,1.90
2019-02-08T03:30:59.268Z,1.80
2019-02-08T03:33:29.901Z,1.80
2019-02-08T03:36:00.212Z,1.80
2019-02-08T03:38:30.571Z,1.80
2019-02-08T03:41:00.901Z,1.80
2019-02-08T03:43:31.158Z,1.80
2019-02-08T03:46:02.569Z,1.80
2019-02-08T03:48:32.948Z,1.80
2019-02-08T03:51:03.312Z,1.80
2019-02-08T03:53:33.738Z,1.80
2019-02-08T03:56:04.144Z,1.80
2019-02-08T03:58:34.457Z,1.80
2019-02-08T04:01:06.454Z,1.80
2019-02-08T04:03:36.847Z,1.70
2019-02-08T04:06:08.292Z,1.80
2019-02-08T04:08:38.622Z,1.80
2019-02-08T04:11:09.065Z,1.80
2019-02-08T04:13:39.453Z,1.80
2019-02-08T04:16:09.697Z,1.80
2019-02-08T04:18:40.094Z,1.80
2019-02-08T04:21:10.565Z,1.80
2019-02-08T04:23:40.954Z,1.80
2019-02-08T04:26:11.271Z,1.80
2019-02-08T04:28:41.612Z,1.80
2019-02-08T04:31:11.852Z,1.80
2019-02-08T04:33:42.299Z,1.80
2019-02-08T04:36:12.698Z,1.80
2019-02-08T04:38:43.082Z,1.80
2019-02-08T04:41:13.563Z,1.90
2019-02-08T04:43:45.004Z,1.90
2019-02-08T04:46:15.498Z,1.90
2019-02-08T04:48:45.722Z,1.90
2019-02-08T04:51:15.994Z,1.80
2019-02-08T04:53:46.512Z,1.90
2019-02-08T04:56:16.875Z,1.90
2019-02-08T04:58:47.108Z,1.90
2019-02-08T05:01:17.861Z,1.90
2019-02-08T05:03:48.128Z,1.90
2019-02-08T05:06:18.610Z,1.90
2019-02-08T05:08:49.023Z,1.90
2019-02-08T05:11:19.302Z,1.90
2019-02-08T05:13:49.684Z,1.90
2019-02-08T05:16:20.140Z,1.90
2019-02-08T05:18:50.450Z,1.90
2019-02-08T05:21:20.792Z,1.90
2019-02-08T05:23:51.066Z,1.90
2019-02-08T05:26:21.365Z,1.90
2019-02-08T05:28:51.789Z,1.90
2019-02-08T05:31:22.126Z,1.90
2019-02-08T05:33:52.514Z,1.90
2019-02-08T05:36:22.942Z,1.90
2019-02-08T05:38:53.363Z,1.80
2019-02-08T05:41:23.685Z,1.90
2019-02-08T05:43:53.991Z,1.80
2019-02-08T05:46:24.373Z,1.80
2019-02-08T05:48:54.746Z,1.80
2019-02-08T05:51:25.302Z,1.80
2019-02-08T05:53:55.562Z,1.80
2019-02-08T05:56:26.116Z,1.80
2019-02-08T05:58:56.414Z,1.80
2019-02-08T06:01:26.801Z,1.80
2019-02-08T06:03:59.267Z,1.80
2019-02-08T06:06:29.885Z,1.80
2019-02-08T06:09:00.321Z,1.80
2019-02-08T06:11:32.814Z,1.80
2019-02-08T06:14:02.816Z,1.80
2019-02-08T06:16:33.283Z,1.80
2019-02-08T06:19:03.882Z,1.80
2019-02-08T06:21:34.305Z,1.90
2019-02-08T06:24:04.867Z,1.90
2019-02-08T06:26:35.186Z,1.80
2019-02-08T06:29:05.784Z,1.90
2019-02-08T06:31:36.212Z,1.90
2019-02-08T06:34:06.579Z,1.90
2019-02-08T06:36:37.232Z,1.90
2019-02-08T06:39:10.784Z,1.90
2019-02-08T06:41:41.454Z,1.90
2019-02-08T06:44:11.858Z,1.90
2019-02-08T06:46:42.269Z,1.90
2019-02-08T06:49:12.614Z,2.00
2019-02-08T06:51:43.397Z,2.00
2019-02-08T06:54:13.684Z,2.00
2019-02-08T06:57:02.990Z,2.00
2019-02-08T06:59:43.915Z,2.00
2019-02-08T07:02:22.729Z,2.10
2019-02-08T07:05:12.175Z,2.10
2019-02-08T07:07:52.339Z,2.20
2019-02-08T07:10:41.751Z,2.20
2019-02-08T07:13:31.257Z,2.10
2019-02-08T07:16:16.676Z,2.20
2019-02-08T07:18:52.544Z,2.20
2019-02-08T07:21:34.908Z,2.20
2019-02-08T07:24:24.623Z,2.20
2019-02-08T07:27:02.328Z,2.20
2019-02-08T07:29:51.798Z,2.10
2019-02-08T07:32:33.899Z,2.20
2019-02-08T07:35:21.803Z,2.20
2019-02-08T07:38:11.366Z,2.30
2019-02-08T07:40:58.419Z,2.30
2019-02-08T07:43:43.514Z,2.40
2019-02-08T07:46:32.959Z,2.30
2019-02-08T07:49:09.205Z,2.30
2019-02-08T07:51:58.691Z,2.20
2019-02-08T07:54:38.543Z,2.20
2019-02-08T07:57:27.930Z,2.20
2019-02-08T08:00:17.393Z,2.30
2019-02-08T08:03:06.864Z,2.30
2019-02-08T08:05:52.227Z,2.40
2019-02-08T08:08:42.590Z,2.40
2019-02-08T08:11:25.696Z,2.50
2019-02-08T08:14:04.972Z,2.50
2019-02-08T08:16:52.662Z,2.60
2019-02-08T08:19:30.733Z,2.60
2019-02-08T08:22:20.162Z,2.70
2019-02-08T08:25:09.663Z,2.70
2019-02-08T08:27:59.193Z,2.70
2019-02-08T08:30:48.715Z,2.80
2019-02-08T08:33:27.959Z,2.90
2019-02-08T08:36:34.827Z,2.90
2019-02-08T08:39:43.694Z,2.80
2019-02-08T08:42:52.678Z,2.90
2019-02-08T08:45:37.506Z,2.90
2019-02-08T08:48:45.836Z,3.10
2019-02-08T08:51:54.724Z,3.10
2019-02-08T08:54:56.680Z,3.30
2019-02-08T08:57:54.190Z,3.40
2019-02-08T09:00:53.274Z,3.50
2019-02-08T09:03:55.866Z,3.60
2019-02-08T09:07:04.816Z,3.70
2019-02-08T09:10:13.332Z,3.80
2019-02-08T09:12:57.225Z,3.90
2019-02-08T09:16:06.315Z,4.00
2019-02-08T09:19:05.098Z,4.10
2019-02-08T09:21:56.344Z,4.10
2019-02-08T09:25:05.481Z,4.20
2019-02-08T09:28:04.003Z,4.30
2019-02-08T09:30:53.752Z,4.30
2019-02-08T09:33:55.543Z,4.40
2019-02-08T09:37:04.534Z,4.50
2019-02-08T09:39:51.672Z,4.60
2019-02-08T09:43:00.590Z,4.80
2019-02-08T09:45:40.745Z,4.80
2019-02-08T09:48:38.583Z,4.80
2019-02-08T09:51:35.723Z,4.90
2019-02-08T09:54:39.736Z,5.00
2019-02-08T09:57:38.223Z,5.00
2019-02-08T10:00:47.417Z,5.00
2019-02-08T10:03:56.435Z,5.00
2019-02-08T10:06:50.913Z,5.10
2019-02-08T10:10:02.759Z,5.30
2019-02-08T10:13:11.911Z,5.30
2019-02-08T10:16:20.898Z,5.30
2019-02-08T10:19:30.862Z,5.40
2019-02-08T10:22:26.312Z,5.60
2019-02-08T10:25:35.306Z,5.70
2019-02-08T10:28:44.252Z,5.70
2019-02-08T10:31:39.649Z,5.70
2019-02-08T10:34:35.543Z,5.70
2019-02-08T10:37:39.932Z,5.80
2019-02-08T10:40:48.882Z,6.00
2019-02-08T10:43:57.845Z,5.90
2019-02-08T10:47:06.821Z,6.00
2019-02-08T10:50:12.496Z,6.00
2019-02-08T10:53:09.253Z,6.20
2019-02-08T10:56:04.585Z,6.30
2019-02-08T10:59:09.891Z,6.40
2019-02-08T11:02:18.751Z,6.40
2019-02-08T11:05:19.930Z,6.40
2019-02-08T11:08:29.103Z,6.40
2019-02-08T11:11:25.108Z,6.50
2019-02-08T11:14:16.414Z,6.60
2019-02-08T11:17:25.443Z,6.70
2019-02-08T11:19:56.085Z,6.90
2019-02-08T11:22:26.468Z,7.00
2019-02-08T11:24:56.773Z,7.10
2019-02-08T11:27:27.213Z,7.10
2019-02-08T11:29:57.475Z,7.10
2019-02-08T11:32:42.511Z,7.00
2019-02-08T11:34:59.834Z,6.90
2019-02-08T11:37:30.202Z,6.90
2019-02-08T11:40:00.647Z,6.90
2019-02-08T11:42:31.239Z,6.90
2019-02-08T11:45:01.636Z,7.10
2019-02-08T11:47:32.057Z,7.20
2019-02-08T11:50:02.384Z,7.20
2019-02-08T11:52:32.974Z,7.20
2019-02-08T11:55:03.330Z,7.20
2019-02-08T11:57:34.377Z,7.10
2019-02-08T12:00:06.315Z,7.10
2019-02-08T12:02:40.595Z,7.10
2019-02-08T12:05:08.892Z,7.10
2019-02-08T12:07:39.311Z,7.20
2019-02-08T12:10:09.856Z,7.30
2019-02-08T12:12:40.226Z,7.30
2019-02-08T12:15:11.752Z,7.30
2019-02-08T12:17:42.122Z,7.30
2019-02-08T12:20:12.550Z,7.20
2019-02-08T12:22:43.130Z,7.30
2019-02-08T12:25:13.492Z,7.20
2019-02-08T12:27:43.848Z,7.30
2019-02-08T12:30:19.867Z,7.30
2019-02-08T12:32:50.296Z,7.30
2019-02-08T12:35:20.645Z,7.40
2019-02-08T12:37:51.243Z,7.50
2019-02-08T12:40:21.764Z,7.50
2019-02-08T12:42:52.062Z,7.50
2019-02-08T12:45:22.462Z,7.40
2019-02-08T12:47:52.847Z,7.50
2019-02-08T12:50:23.401Z,7.50
2019-02-08T12:52:53.751Z,7.50
2019-02-08T12:55:24.123Z,7.70
2019-02-08T12:57:54.511Z,7.80
2019-02-08T13:00:24.916Z,8.10
2019-02-08T13:02:55.280Z,8.40
2019-02-08T13:05:25.653Z,8.50
2019-02-08T13:07:56.002Z,8.40
2019-02-08T13:10:26.514Z,8.30
2019-02-08T13:12:56.847Z,8.40
2019-02-08T13:15:27.199Z,8.50
2019-02-08T13:17:57.560Z,8.40
2019-02-08T13:20:28.139Z,8.40
2019-02-08T13:22:58.471Z,8.30
2019-02-08T13:25:28.764Z,8.00
2019-02-08T13:27:59.029Z,7.70
2019-02-08T13:30:29.813Z,7.50
2019-02-08T13:33:00.091Z,7.40
2019-02-08T13:35:30.613Z,7.40
2019-02-08T13:38:01.131Z,7.30
2019-02-08T13:40:31.472Z,7.20
2019-02-08T13:43:02.031Z,7.10
2019-02-08T13:45:32.487Z,7.00
2019-02-08T13:48:02.833Z,7.00
2019-02-08T13:50:33.358Z,7.00
2019-02-08T13:53:03.698Z,6.90
2019-02-08T13:55:34.083Z,6.90
2019-02-08T13:58:06.076Z,7.00
2019-02-08T14:00:37.526Z,7.00
2019-02-08T14:03:08.222Z,7.30
2019-02-08T14:05:38.821Z,7.30
2019-02-08T14:08:09.168Z,7.30
2019-02-08T14:10:39.683Z,7.30
2019-02-08T14:13:10.026Z,7.20
2019-02-08T14:15:40.450Z,6.90
2019-02-08T14:18:10.836Z,6.70
2019-02-08T14:20:41.212Z,6.50
2019-02-08T14:23:11.892Z,6.30
2019-02-08T14:25:42.433Z,6.30
2019-02-08T14:28:12.713Z,6.30
2019-02-08T14:30:43.426Z,6.40
2019-02-08T14:33:13.885Z,6.50
2019-02-08T14:35:44.267Z,6.50
2019-02-08T14:38:18.843Z,6.50
2019-02-08T14:40:49.312Z,6.30
2019-02-08T14:43:19.607Z,6.20
2019-02-08T14:45:50.037Z,6.00
2019-02-08T14:48:20.665Z,5.90
2019-02-08T14:50:51.171Z,5.70
2019-02-08T14:53:21.709Z,5.60
2019-02-08T14:55:52.393Z,5.50
2019-02-08T14:58:22.846Z,5.30
2019-02-08T15:00:53.189Z,5.10
2019-02-08T15:03:23.737Z,5.00
2019-02-08T15:05:54.174Z,4.80
2019-02-08T15:08:24.529Z,4.70
2019-02-08T15:10:54.891Z,4.60
2019-02-08T15:13:25.258Z,4.50
2019-02-08T15:15:55.783Z,4.40
2019-02-08T15:18:26.201Z,4.30
2019-02-08T15:20:56.635Z,4.20
2019-02-08T15:23:27.561Z,4.10
2019-02-08T15:25:58.085Z,4.10
2019-02-08T15:28:28.497Z,3.90
2019-02-08T15:30:59.053Z,3.80
2019-02-08T15:33:29.484Z,3.70
2019-02-08T15:36:00.170Z,3.50
2019-02-08T15:38:30.742Z,3.40
2019-02-08T15:41:01.389Z,3.30
2019-02-08T15:43:32.004Z,3.20
2019-02-08T15:46:04.863Z,3.00
2019-02-08T15:48:35.398Z,2.90
2019-02-08T15:51:05.947Z,2.80
2019-02-08T15:53:37.824Z,2.70
2019-02-08T15:56:11.759Z,2.60
2019-02-08T15:58:42.244Z,2.60
2019-02-08T16:01:13.150Z,2.60
2019-02-08T16:03:44.610Z,2.60
2019-02-08T16:06:14.988Z,2.60
2019-02-08T16:08:45.378Z,2.40
2019-02-08T16:11:15.958Z,2.40
2019-02-08T16:13:46.257Z,2.40
2019-02-08T16:16:16.594Z,2.40
2019-02-08T16:18:46.830Z,2.50
2019-02-08T16:21:17.263Z,2.50
2019-02-08T16:23:47.892Z,2.50
2019-02-08T16:26:18.282Z,2.40
2019-02-08T16:28:48.681Z,2.50
2019-02-08T16:31:19.129Z,2.40
2019-02-08T16:33:49.593Z,2.30
2019-02-08T16:36:20.083Z,2.30
2019-02-08T16:38:50.580Z,2.20
2019-02-08T16:41:20.991Z,2.10
2019-02-08T16:43:51.413Z,2.00
2019-02-08T16:46:21.976Z,1.90
2019-02-08T16:48:52.542Z,1.80
2019-02-08T16:51:23.043Z,1.70
2019-02-08T16:53:53.887Z,1.60
2019-02-08T16:56:24.474Z,1.50
2019-02-08T16:58:54.806Z,1.40
2019-02-08T17:01:25.327Z,1.30
2019-02-08T17:03:55.790Z,1.20
2019-02-08T17:06:26.419Z,1.00
2019-02-08T17:08:57.120Z,0.90
2019-02-08T17:11:27.685Z,0.70
2019-02-08T17:13:58.211Z,0.60
2019-02-08T17:16:28.649Z,0.60
2019-02-08T17:18:59.187Z,0.50
2019-02-08T17:21:29.702Z,0.40
2019-02-08T17:24:00.234Z,0.40
2019-02-08T17:26:30.711Z,0.40
2019-02-08T17:29:01.229Z,0.30
2019-02-08T17:31:32.007Z,0.20
2019-02-08T17:34:03.061Z,0.10
2019-02-08T17:36:33.560Z,0.00
2019-02-08T17:39:05.827Z,0.00
2019-02-08T17:41:37.343Z,0.00
2019-02-08T17:44:08.178Z,0.10
2019-02-08T17:46:39.270Z,0.00
2019-02-08T17:49:10.023Z,-0.10
2019-02-08T17:51:40.820Z,-0.20
2019-02-08T17:54:12.292Z,-0.10
2019-02-08T17:56:43.062Z,-0.20
2019-02-08T17:59:13.449Z,-0.20
2019-02-08T18:01:43.926Z,-0.20
2019-02-08T18:04:14.428Z,-0.30
2019-02-08T18:06:45.095Z,-0.20
2019-02-08T18:09:24.183Z,-0.20
2019-02-08T18:11:54.704Z,-0.10
2019-02-08T18:14:25.524Z,0.00
2019-02-08T18:16:55.749Z,0.00
2019-02-08T18:19:26.488Z,0.00
2019-02-08T18:21:56.870Z,0.00
2019-02-08T18:24:27.351Z,0.00
2019-02-08T18:26:58.112Z,-0.10
2019-02-08T18:29:28.462Z,-0.20
2019-02-08T18:31:58.886Z,-0.20
2019-02-08T18:34:29.177Z,-0.20
2019-02-08T18:36:59.735Z,-0.20
2019-02-08T18:39:30.323Z,-0.10
2019-02-08T18:42:00.692Z,-0.10
2019-02-08T18:44:31.091Z,-0.20
2019-02-08T18:47:01.470Z,-0.20
2019-02-08T18:49:32.824Z,-0.20
2019-02-08T18:52:03.735Z,-0.20
2019-02-08T18:54:34.130Z,-0.10
2019-02-08T18:57:04.528Z,-0.20
2019-02-08T18:59:34.826Z,-0.20
2019-02-08T19:02:05.100Z,-0.20
2019-02-08T19:04:35.493Z,-0.20
2019-02-08T19:07:06.116Z,-0.20
2019-02-08T19:09:36.584Z,-0.20
2019-02-08T19:12:07.042Z,-0.20
2019-02-08T19:14:45.029Z,-0.20
2019-02-08T19:17:15.601Z,-0.20
2019-02-08T19:19:46.244Z,-0.30
2019-02-08T19:22:16.676Z,-0.40
2019-02-08T19:24:47.032Z,-0.50
2019-02-08T19:27:18.908Z,-0.50
2019-02-08T19:29:49.380Z,-0.60
2019-02-08T19:32:19.813Z,-0.60
2019-02-08T19:34:50.349Z,-0.50
2019-02-08T19:37:23.741Z,-0.50
2019-02-08T19:39:54.367Z,-0.40
2019-02-08T19:42:24.755Z,-0.20
2019-02-08T19:44:55.445Z,-0.20
2019-02-08T19:47:25.954Z,-0.20
2019-02-08T19:49:56.547Z,-0.30
2019-02-08T19:52:26.972Z,-0.40
2019-02-08T19:54:57.314Z,-0.40
2019-02-08T19:57:28.107Z,-0.40
2019-02-08T20:00:00.662Z,-0.40
2019-02-08T20:02:31.128Z,-0.30
2019-02-08T20:05:01.439Z,-0.20
2019-02-08T20:07:32.117Z,-0.20
2019-02-08T20:10:02.773Z,-0.30
2019-02-08T20:12:33.443Z,-0.20
2019-02-08T20:15:03.882Z,-0.20
2019-02-08T20:17:34.372Z,-0.20
2019-02-08T20:20:06.838Z,-0.20
2019-02-08T20:22:37.248Z,-0.10
2019-02-08T20:25:21.921Z,0.00
2019-02-08T20:27:52.402Z,-0.10
2019-02-08T20:30:23.163Z,0.00
2019-02-08T20:32:54.301Z,0.10
2019-02-08T20:35:31.552Z,0.10
2019-02-08T20:41:04.780Z,-0.10
2019-02-08T20:43:35.241Z,-0.20
2019-02-08T20:46:05.674Z,-0.30
2019-02-08T20:48:36.022Z,-0.30
2019-02-08T20:51:06.517Z,-0.40
2019-02-08T20:53:36.929Z,-0.40
2019-02-08T20:56:07.383Z,-0.40
2019-02-08T20:58:37.912Z,-0.50
2019-02-08T21:01:08.361Z,-0.50
2019-02-08T21:03:38.940Z,-0.60
2019-02-08T21:06:09.433Z,-0.60
2019-02-08T21:08:39.994Z,-0.70
2019-02-08T21:11:10.647Z,-0.80
2019-02-08T21:13:41.090Z,-0.70
2019-02-08T21:16:11.695Z,-0.70
2019-02-08T21:18:42.214Z,-0.60
2019-02-08T21:21:12.593Z,-0.50
2019-02-08T21:23:43.061Z,-0.40
2019-02-08T21:26:13.457Z,-0.40
2019-02-08T21:28:43.811Z,-0.40
2019-02-08T21:31:14.319Z,-0.40
2019-02-08T21:33:44.542Z,-0.50
2019-02-08T21:36:14.871Z,-0.50
2019-02-08T21:38:45.243Z,-0.50
2019-02-08T21:41:15.562Z,-0.60
2019-02-08T21:43:46.300Z,-0.70
2019-02-08T21:46:16.840Z,-0.70
2019-02-08T21:48:47.218Z,-0.70
2019-02-08T21:51:17.598Z,-0.70
2019-02-08T21:53:48.019Z,-0.70
2019-02-08T21:56:18.329Z,-0.70
2019-02-08T21:58:48.889Z,-0.60
2019-02-08T22:01:19.360Z,-0.50
2019-02-08T22:03:49.693Z,-0.50
2019-02-08T22:06:20.958Z,-0.40
2019-02-08T22:08:51.389Z,-0.30
2019-02-08T22:11:21.720Z,-0.30
2019-02-08T22:13:52.122Z,-0.30
2019-02-08T22:16:22.840Z,-0.30
2019-02-08T22:18:56.230Z,-0.30
2019-02-08T22:21:26.559Z,-0.30
2019-02-08T22:23:57.009Z,-0.30
2019-02-08T22:26:27.453Z,-0.30
2019-02-08T22:28:57.743Z,-0.40
2019-02-08T22:31:28.135Z,-0.40
2019-02-08T22:33:58.835Z,-0.40
2019-02-08T22:36:29.199Z,-0.40
2019-02-08T22:38:59.582Z,-0.50
2019-02-08T22:41:30.035Z,-0.50
2019-02-08T22:44:00.609Z,-0.60
2019-02-08T22:46:31.169Z,-0.60
2019-02-08T22:49:01.582Z,-0.60
2019-02-08T22:51:31.912Z,-0.60
2019-02-08T22:54:03.362Z,-0.70
2019-02-08T22:56:33.740Z,-0.70
2019-02-08T22:59:04.525Z,-0.70
2019-02-08T23:01:37.799Z,-0.80
2019-02-08T23:04:08.718Z,-0.80
2019-02-08T23:06:44.639Z,-0.90
2019-02-08T23:09:24.016Z,-0.90
2019-02-08T23:11:54.331Z,-0.80
2019-02-08T23:14:24.712Z,-0.80
2019-02-08T23:16:55.090Z,-0.80
2019-02-08T23:19:25.548Z,-0.70
2019-02-08T23:21:56.499Z,-0.70
2019-02-08T23:24:26.918Z,-0.70
2019-02-08T23:26:58.263Z,-0.60
2019-02-08T23:29:30.288Z,-0.70
2019-02-08T23:32:00.786Z,-0.70
2019-02-08T23:34:31.197Z,-0.80
2019-02-08T23:37:01.599Z,-0.80
2019-02-08T23:39:32.260Z,-0.90
2019-02-08T23:42:02.574Z,-0.90
2019-02-08T23:44:32.981Z,-0.90
2019-02-08T23:47:03.262Z,-1.00
2019-02-08T23:49:36.444Z,-1.00
2019-02-08T23:52:06.731Z,-1.00
2019-02-08T23:54:37.195Z,-1.00
2019-02-08T23:57:07.436Z,-1.00
2019-02-08T23:59:38.475Z,-1.10
